Valemount, Canada
Current Conditions -  °F | °C
As of 9:00 PM on Monday 26 Jan 2015 (Local Time) from CYWL Reporting Station
Broken Clouds Broken Clouds  
Wind Chill: 33°   Ceiling: 22000
Heat Index: 39°   Visibility: 15mi
Dew Point: 30°   Wind: 9mph
Humidity: 70%   Direction: 110°ESE
Pressure: 29.74"   Gusts: NA
Location:  52.83°N, 119.25°W
Report Text: CYWL 270500Z 11008KT 15SM SCT080 BKN220 04/M01 A2974 RMK AC3CI3 SLP095
Loading
Personal Weather Stations






























Interactive Weather Map New forecast layout! Learn more

10-Day Weather Forecast

Advertisements
Track Severe Weather on mobile